DENVER INTL

KDEN (DEN)
Denver, Colorado
Towered

Vatsim Metar:
KDEN 251753Z 36004KT 10SM SCT055 SCT085 SCT120 13/M01 A3022 RMK AO2 SLP189 T01331006 10139 20067 50001

No ATC Online

Traffic

Inbound:
Ident
Type
Name
ETA
Phase
DAL1004
B739/L
Kyle Girouard KASH
18:38 Z
Cruse

Outbound:
Ident
Type
Name
Destination
Phase
FFT9371
A320/L
mohammed almaskary
KONT
Climb

SIDs

STARS

Alternate Minimums

Hot Spots